Time;durP1;ratioP1;P1;durP2;ratioP2;P2;SDS_P1;SDS_P2;PMS_P1;PMS_P2;Temp;Humidity;BMP_temperature;BMP_pressure;BME280_temperature;BME280_humidity;BME280_pressure;Samples;Min_cycle;Max_cycle;Signal;HPM_P1;HPM_P2
2023/01/01 00:00:47;;;;;;;29.23;18.40;;;16.60;99.90;;;;;;2548926;23;20065;-76
2023/01/01 00:01:47;;;;;;;72.05;37.33;;;16.60;99.90;;;;;;2549029;23;20005;-76
2023/01/01 00:02:48;;;;;;;35.75;21.30;;;16.60;99.90;;;;;;2548902;23;20045;-75
2023/01/01 00:03:53;;;;;;;28.45;18.95;;;16.60;99.90;;;;;;2551160;23;20013;-77
2023/01/01 00:04:53;;;;;;;25.00;14.93;;;16.60;99.90;;;;;;2551888;23;20470;-76
2023/01/01 00:05:54;;;;;;;32.80;21.65;;;16.60;99.90;;;;;;2562306;23;20087;-75
2023/01/01 00:06:54;;;;;;;26.13;17.33;;;16.60;99.90;;;;;;2561470;23;20001;-76
2023/01/01 00:07:55;;;;;;;25.15;17.33;;;16.60;99.90;;;;;;2562068;23;20005;-75
2023/01/01 00:10:27;;;;;;;23.90;14.85;;;16.60;99.90;;;;;;2562084;23;20091;-75
2023/01/01 00:11:27;;;;;;;30.98;18.45;;;16.60;99.90;;;;;;2562171;23;20092;-73
2023/01/01 00:12:30;;;;;;;19.95;12.90;;;16.50;99.90;;;;;;2562207;23;20019;-75
2023/01/01 00:13:31;;;;;;;18.20;12.80;;;16.50;99.90;;;;;;2564515;23;20091;-74
2023/01/01 00:14:31;;;;;;;37.58;16.13;;;16.50;99.90;;;;;;2549105;23;20083;-74
2023/01/01 00:15:32;;;;;;;18.65;13.30;;;16.60;99.90;;;;;;2548991;23;20378;-73
2023/01/01 00:16:33;;;;;;;21.92;14.02;;;16.60;99.90;;;;;;2562224;23;20011;-75
2023/01/01 00:17:33;;;;;;;20.00;12.35;;;16.60;99.90;;;;;;2564503;23;20032;-75
2023/01/01 00:18:34;;;;;;;25.00;15.15;;;16.60;99.90;;;;;;2562109;23;20001;-75
2023/01/01 00:19:35;;;;;;;21.50;13.95;;;16.70;99.90;;;;;;2561932;23;20000;-74
2023/01/01 00:20:35;;;;;;;22.85;13.55;;;16.70;99.90;;;;;;2548858;23;20044;-72
2023/01/01 00:21:36;;;;;;;28.60;18.40;;;16.70;99.90;;;;;;2550714;23;20029;-74
2023/01/01 00:22:37;;;;;;;20.95;12.05;;;16.70;99.90;;;;;;2548798;23;20020;-74
2023/01/01 00:23:38;;;;;;;17.08;11.68;;;16.70;99.90;;;;;;2548987;23;20653;-74
2023/01/01 00:24:39;;;;;;;14.45;10.93;;;16.60;99.90;;;;;;2549100;23;20014;-74
2023/01/01 00:25:39;;;;;;;15.05;10.63;;;16.60;99.90;;;;;;2549099;23;20060;-74
2023/01/01 00:26:40;;;;;;;15.85;11.10;;;16.60;99.90;;;;;;2551147;23;20013;-76
2023/01/01 00:27:41;;;;;;;64.60;24.10;;;16.60;99.90;;;;;;2536588;23;20013;-73
2023/01/01 00:28:43;;;;;;;13.85;11.02;;;16.60;99.90;;;;;;2549103;23;20048;-75
2023/01/01 00:29:43;;;;;;;42.00;17.08;;;16.50;99.90;;;;;;2562078;23;20012;-74
2023/01/01 00:30:44;;;;;;;14.60;9.82;;;16.50;99.90;;;;;;2564357;23;20020;-75
2023/01/01 00:31:45;;;;;;;17.48;10.95;;;16.40;99.90;;;;;;2562101;23;20346;-73
2023/01/01 00:32:46;;;;;;;12.95;8.57;;;16.40;99.90;;;;;;2562157;23;20016;-75
2023/01/01 00:33:51;;;;;;;15.70;8.60;;;16.50;99.90;;;;;;2562078;23;20043;-75
2023/01/01 00:34:52;;;;;;;13.27;8.75;;;16.50;99.90;;;;;;2562106;23;20083;-74
2023/01/01 00:35:52;;;;;;;16.02;10.93;;;16.50;99.90;;;;;;2564379;23;20095;-76
2023/01/01 00:36:53;;;;;;;20.95;11.10;;;16.60;99.90;;;;;;2562083;23;20001;-75
2023/01/01 00:37:54;;;;;;;15.52;9.40;;;16.50;99.90;;;;;;2562335;23;20264;-73
2023/01/01 00:38:55;;;;;;;14.85;8.70;;;16.50;99.90;;;;;;2548896;23;20510;-75
2023/01/01 00:39:56;;;;;;;14.48;8.77;;;16.50;99.90;;;;;;2551207;23;20001;-75
2023/01/01 00:40:56;;;;;;;35.67;13.90;;;16.40;99.90;;;;;;2562508;23;20087;-77
2023/01/01 00:41:57;;;;;;;11.50;8.77;;;16.40;99.90;;;;;;2562090;23;20001;-78
2023/01/01 00:42:57;;;;;;;13.18;8.38;;;16.50;99.90;;;;;;2562200;23;20012;-74
2023/01/01 00:43:58;;;;;;;15.95;10.20;;;16.40;99.90;;;;;;2561599;23;20134;-76
2023/01/01 00:44:58;;;;;;;13.68;9.48;;;16.50;99.90;;;;;;2557928;23;20036;-74
2023/01/01 00:45:59;;;;;;;13.43;9.30;;;16.50;99.90;;;;;;2565147;23;20020;-83
2023/01/01 00:46:59;;;;;;;25.80;19.67;;;16.50;99.90;;;;;;2567395;23;20007;-86
2023/01/01 00:48:00;;;;;;;13.93;11.15;;;16.50;99.90;;;;;;2554496;23;20017;-85
2023/01/01 00:49:01;;;;;;;24.63;18.48;;;16.50;99.90;;;;;;2552061;23;20012;-84
2023/01/01 00:50:02;;;;;;;16.88;12.05;;;16.50;99.90;;;;;;2555089;23;20001;-82
2023/01/01 00:51:03;;;;;;;21.80;14.98;;;16.40;99.90;;;;;;2549001;23;20005;-82
2023/01/01 00:52:04;;;;;;;18.15;12.48;;;16.40;99.90;;;;;;2562642;23;20508;-82
2023/01/01 00:53:04;;;;;;;28.50;20.90;;;16.40;99.90;;;;;;2562570;23;20091;-76
2023/01/01 00:54:05;;;;;;;22.00;14.20;;;16.40;99.90;;;;;;2563704;23;20001;-76
2023/01/01 00:55:06;;;;;;;14.18;10.60;;;16.30;99.90;;;;;;2550614;23;20035;-74
2023/01/01 00:56:07;;;;;;;10.85;7.70;;;16.30;99.90;;;;;;2536251;23;20041;-75
2023/01/01 00:57:07;;;;;;;12.52;9.30;;;16.30;99.90;;;;;;2548494;23;20005;-76
2023/01/01 00:58:08;;;;;;;15.63;9.68;;;16.30;99.90;;;;;;2548469;23;20008;-75
2023/01/01 00:59:09;;;;;;;18.88;13.98;;;16.30;99.90;;;;;;2550971;23;20013;-78
2023/01/01 01:00:10;;;;;;;13.00;8.63;;;16.20;99.90;;;;;;2548494;23;20013;-77
2023/01/01 01:01:11;;;;;;;14.82;9.40;;;16.20;99.90;;;;;;2536246;23;20278;-77
2023/01/01 01:02:11;;;;;;;12.80;9.82;;;16.20;99.90;;;;;;2536758;23;20529;-78
2023/01/01 01:03:26;;;;;;;18.83;12.48;;;16.10;99.90;;;;;;2539237;23;20017;-74
2023/01/01 01:04:27;;;;;;;19.20;14.95;;;16.10;99.90;;;;;;2553686;23;20403;-74
2023/01/01 01:05:27;;;;;;;12.55;8.98;;;16.10;99.90;;;;;;2561195;23;20310;-76
2023/01/01 01:06:28;;;;;;;12.05;8.60;;;16.10;99.90;;;;;;2562010;23;20019;-74
2023/01/01 01:07:35;;;;;;;9.75;7.60;;;16.10;99.90;;;;;;2562244;23;20011;-75
2023/01/01 01:08:38;;;;;;;12.00;7.15;;;16.20;99.90;;;;;;2561991;23;20505;-77
2023/01/01 01:09:39;;;;;;;12.80;9.82;;;16.20;99.90;;;;;;2561694;23;20365;-78
2023/01/01 01:10:39;;;;;;;18.88;13.13;;;16.20;99.90;;;;;;2563845;23;20492;-78
2023/01/01 01:11:40;;;;;;;48.70;29.05;;;16.20;99.90;;;;;;2561979;23;20472;-77
2023/01/01 01:12:40;;;;;;;22.13;16.63;;;16.10;99.90;;;;;;2562415;23;20001;-77
2023/01/01 01:13:42;;;;;;;12.00;8.85;;;16.10;99.90;;;;;;2562729;23;20036;-77
2023/01/01 01:14:43;;;;;;;14.30;9.48;;;16.10;99.90;;;;;;2551513;23;20084;-76
2023/01/01 01:15:43;;;;;;;12.95;9.10;;;16.00;99.90;;;;;;2549519;23;20232;-76
2023/01/01 01:16:44;;;;;;;11.02;7.90;;;16.00;99.90;;;;;;2562675;23;20408;-76
2023/01/01 01:17:44;;;;;;;12.70;9.65;;;16.00;99.90;;;;;;2549086;23;20029;-77
2023/01/01 01:18:46;;;;;;;15.43;11.45;;;16.00;99.90;;;;;;2524855;23;20021;-77
2023/01/01 01:19:47;;;;;;;11.70;8.18;;;16.00;99.90;;;;;;2525916;23;20117;-78
2023/01/01 01:20:51;;;;;;;13.45;8.80;;;15.90;99.90;;;;;;2539108;23;20024;-76
2023/01/01 01:21:52;;;;;;;11.48;7.78;;;15.90;99.90;;;;;;2549308;23;20449;-77
2023/01/01 01:22:52;;;;;;;10.77;7.55;;;15.90;99.90;;;;;;2536752;23;20009;-78
2023/01/01 01:23:53;;;;;;;12.98;7.22;;;15.90;99.90;;;;;;2549133;23;20005;-77
2023/01/01 01:24:54;;;;;;;10.90;7.47;;;15.90;99.90;;;;;;2564800;23;20017;-78
2023/01/01 01:26:12;;;;;;;9.85;6.97;;;15.90;99.90;;;;;;2562391;23;20016;-77
2023/01/01 01:27:13;;;;;;;11.55;7.00;;;15.90;99.90;;;;;;2564702;23;20012;-77
2023/01/01 01:28:14;;;;;;;9.60;8.13;;;15.80;99.90;;;;;;2562448;23;20489;-77
2023/01/01 01:29:14;;;;;;;11.38;7.55;;;15.80;99.90;;;;;;2562382;23;20337;-77
2023/01/01 01:30:15;;;;;;;10.98;8.43;;;15.80;99.90;;;;;;2562223;23;20008;-77
2023/01/01 01:31:17;;;;;;;11.27;7.90;;;15.80;99.90;;;;;;2562501;23;20044;-78
2023/01/01 01:32:18;;;;;;;8.82;7.45;;;15.80;99.90;;;;;;2562404;23;20005;-77
2023/01/01 01:33:19;;;;;;;12.68;7.68;;;15.80;99.90;;;;;;2564491;23;20096;-74
2023/01/01 01:34:19;;;;;;;9.65;7.07;;;15.80;99.90;;;;;;2562772;23;20016;-71
2023/01/01 01:35:20;;;;;;;11.48;7.50;;;15.80;99.90;;;;;;2562656;23;20035;-71
2023/01/01 01:36:21;;;;;;;11.35;7.65;;;15.70;99.90;;;;;;2565067;23;19997;-71
2023/01/01 01:37:21;;;;;;;11.63;7.20;;;15.70;99.90;;;;;;2562571;23;20203;-70
2023/01/01 01:38:22;;;;;;;11.93;7.43;;;15.60;99.90;;;;;;2562352;23;20501;-72
2023/01/01 01:39:22;;;;;;;13.15;7.88;;;15.60;99.90;;;;;;2562150;23;20114;-72
2023/01/01 01:40:23;;;;;;;10.15;7.35;;;15.60;99.90;;;;;;2562088;23;20386;-72
2023/01/01 01:41:25;;;;;;;10.50;7.95;;;15.60;99.90;;;;;;2564267;23;20011;-73
2023/01/01 01:42:25;;;;;;;11.18;7.10;;;15.60;99.90;;;;;;2562637;23;20004;-72
2023/01/01 01:43:32;;;;;;;14.43;10.05;;;15.60;99.90;;;;;;2562891;23;20021;-71
2023/01/01 01:44:48;;;;;;;21.42;13.80;;;15.50;99.90;;;;;;2556202;23;20001;-74
2023/01/01 01:45:49;;;;;;;14.55;7.40;;;15.50;99.90;;;;;;2562441;23;20337;-73
2023/01/01 01:46:50;;;;;;;11.65;8.30;;;15.50;99.90;;;;;;2562200;23;20616;-73
2023/01/01 01:47:54;;;;;;;10.65;7.20;;;15.50;99.90;;;;;;2561465;23;20008;-73
2023/01/01 01:49:00;;;;;;;10.35;6.80;;;15.40;99.90;;;;;;2563824;23;20036;-72
2023/01/01 01:50:12;;;;;;;11.35;7.60;;;15.40;99.90;;;;;;2564386;23;20016;-73
2023/01/01 01:51:16;;;;;;;9.98;7.75;;;15.40;99.90;;;;;;2564626;23;20004;-73
2023/01/01 01:52:17;;;;;;;20.58;14.45;;;15.40;99.90;;;;;;2562425;23;20078;-74
2023/01/01 01:53:27;;;;;;;19.73;13.30;;;15.40;99.90;;;;;;2562306;23;20393;-73
2023/01/01 01:54:28;;;;;;;13.18;8.90;;;15.40;99.90;;;;;;2562517;23;20027;-73
2023/01/01 01:55:31;;;;;;;13.02;8.43;;;15.40;99.90;;;;;;2562475;23;20017;-73
2023/01/01 01:56:44;;;;;;;10.80;7.82;;;15.50;99.90;;;;;;2562484;23;20022;-73
2023/01/01 01:57:44;;;;;;;10.68;7.25;;;15.50;99.90;;;;;;2562306;23;20036;-74
2023/01/01 01:58:45;;;;;;;14.75;7.88;;;15.60;99.90;;;;;;2562340;23;20067;-73
2023/01/01 01:59:49;;;;;;;11.75;7.88;;;15.60;99.90;;;;;;2564274;23;20088;-73
2023/01/01 02:00:50;;;;;;;11.57;7.20;;;15.60;99.90;;;;;;2562538;23;20096;-73
2023/01/01 02:01:51;;;;;;;8.98;6.57;;;15.70;99.90;;;;;;2562087;23;20007;-73
2023/01/01 02:03:03;;;;;;;8.60;6.30;;;15.80;99.90;;;;;;2562088;23;20051;-74
2023/01/01 02:04:04;;;;;;;13.55;9.25;;;15.80;99.90;;;;;;2562305;23;20094;-74
2023/01/01 02:05:05;;;;;;;11.07;7.00;;;15.80;99.90;;;;;;2562606;23;20008;-73
2023/01/01 02:06:07;;;;;;;10.48;7.10;;;15.80;99.90;;;;;;2564761;23;20015;-73
2023/01/01 02:07:07;;;;;;;9.57;6.88;;;15.80;99.90;;;;;;2562340;23;20578;-73
2023/01/01 02:08:10;;;;;;;7.22;5.38;;;15.70;99.90;;;;;;2562154;23;20011;-73
2023/01/01 02:09:12;;;;;;;8.50;6.15;;;15.70;99.90;;;;;;2548752;23;20032;-74
2023/01/01 02:10:13;;;;;;;8.15;6.10;;;15.70;99.90;;;;;;2551494;23;20001;-73
2023/01/01 02:11:13;;;;;;;10.10;5.45;;;15.80;99.90;;;;;;2562704;23;20013;-74
2023/01/01 02:12:14;;;;;;;7.53;5.60;;;15.80;99.90;;;;;;2562508;23;20051;-75
2023/01/01 02:13:14;;;;;;;7.55;5.80;;;15.80;99.90;;;;;;2562520;23;20012;-74
2023/01/01 02:14:15;;;;;;;10.38;5.53;;;15.70;99.90;;;;;;2562541;23;20097;-74
2023/01/01 02:15:16;;;;;;;10.30;7.80;;;15.80;99.90;;;;;;2562598;23;20035;-74
2023/01/01 02:16:39;;;;;;;8.40;5.65;;;15.80;99.90;;;;;;2562611;23;20175;-73
2023/01/01 02:17:46;;;;;;;8.27;4.90;;;15.80;99.90;;;;;;2562493;23;20505;-71
2023/01/01 02:19:02;;;;;;;8.55;5.35;;;15.80;99.90;;;;;;2562454;23;20096;-74
2023/01/01 02:20:22;;;;;;;6.82;4.70;;;15.80;99.90;;;;;;2562390;23;20020;-73
2023/01/01 02:21:32;;;;;;;7.43;5.30;;;15.80;99.90;;;;;;2564775;23;20008;-73
2023/01/01 02:22:35;;;;;;;7.65;4.70;;;15.80;99.90;;;;;;2564452;23;20413;-74
2023/01/01 02:24:01;;;;;;;9.98;7.07;;;15.70;99.90;;;;;;2564419;23;20265;-72
2023/01/01 02:25:17;;;;;;;7.80;4.70;;;15.70;99.90;;;;;;2562522;23;20055;-73
2023/01/01 02:26:44;;;;;;;11.10;6.55;;;15.70;99.90;;;;;;2549307;23;20016;-73
2023/01/01 02:28:13;;;;;;;10.85;6.35;;;15.70;99.90;;;;;;2555315;23;20013;-72
2023/01/01 02:29:46;;;;;;;10.30;7.20;;;15.70;99.90;;;;;;2562382;23;20005;-73
2023/01/01 02:30:49;;;;;;;6.05;4.43;;;15.60;99.90;;;;;;2562398;23;20078;-75
2023/01/01 02:32:14;;;;;;;8.30;5.38;;;15.70;99.90;;;;;;2562339;23;20418;-72
2023/01/01 02:33:23;;;;;;;6.50;4.60;;;15.60;99.90;;;;;;2562617;23;20472;-73
2023/01/01 02:34:28;;;;;;;8.57;5.45;;;15.70;99.90;;;;;;2564889;23;20385;-72
2023/01/01 02:35:37;;;;;;;11.77;6.60;;;15.60;99.90;;;;;;2551795;23;20066;-73
2023/01/01 02:36:45;;;;;;;10.73;5.40;;;15.70;99.90;;;;;;2553320;23;20438;-72
2023/01/01 02:37:49;;;;;;;8.20;4.25;;;15.60;99.90;;;;;;2564778;23;20034;-73
2023/01/01 02:38:53;;;;;;;8.18;5.47;;;15.70;99.90;;;;;;2562514;23;20009;-73
2023/01/01 02:39:58;;;;;;;8.55;4.63;;;15.70;99.90;;;;;;2562496;23;20009;-73
2023/01/01 02:41:05;;;;;;;12.45;7.90;;;15.60;99.90;;;;;;2562474;23;20005;-75
2023/01/01 02:42:07;;;;;;;11.68;7.53;;;15.70;99.90;;;;;;2562414;23;20104;-72
2023/01/01 02:43:08;;;;;;;10.85;7.57;;;15.70;99.90;;;;;;2562336;23;20011;-73
2023/01/01 02:44:10;;;;;;;8.52;5.22;;;15.70;99.90;;;;;;2561982;23;20017;-73
2023/01/01 02:45:10;;;;;;;9.20;5.85;;;15.70;99.90;;;;;;2559601;23;20013;-73
2023/01/01 02:46:11;;;;;;;8.82;5.72;;;15.70;99.90;;;;;;2562576;23;20099;-73
2023/01/01 02:47:16;;;;;;;6.50;3.95;;;15.70;99.90;;;;;;2562458;23;20156;-73
2023/01/01 02:48:40;;;;;;;8.65;5.88;;;15.70;99.90;;;;;;2562591;23;20457;-73
2023/01/01 02:49:49;;;;;;;9.88;7.00;;;15.70;99.90;;;;;;2551149;23;20019;-74
2023/01/01 02:50:51;;;;;;;9.05;6.22;;;15.70;99.90;;;;;;2550974;23;20009;-74
2023/01/01 02:52:07;;;;;;;8.52;6.32;;;15.70;99.90;;;;;;2562189;23;20014;-73
2023/01/01 02:53:13;;;;;;;7.15;4.05;;;15.60;99.90;;;;;;2562568;23;20007;-71
2023/01/01 02:54:52;;;;;;;12.10;8.10;;;15.60;99.90;;;;;;2549080;23;20088;-71
2023/01/01 02:56:07;;;;;;;5.72;4.10;;;15.60;99.90;;;;;;2544532;23;20036;-71
2023/01/01 02:57:22;;;;;;;7.47;4.78;;;15.60;99.90;;;;;;2554730;23;20415;-71
2023/01/01 03:00:18;;;;;;;7.40;5.00;;;15.60;99.90;;;;;;2562238;23;20011;-71
2023/01/01 03:01:41;;;;;;;;;;;15.60;99.90;;;;;;2562812;23;20018;-71
2023/01/01 03:03:07;;;;;;;10.48;5.03;;;15.60;99.90;;;;;;2548759;23;19930;-71
2023/01/01 03:04:21;;;;;;;9.07;6.60;;;15.60;99.90;;;;;;2554582;23;20394;-71
2023/01/01 03:05:35;;;;;;;6.45;4.30;;;15.60;99.90;;;;;;2549197;23;20004;-71
2023/01/01 03:06:59;;;;;;;8.88;3.75;;;15.70;99.90;;;;;;2552089;23;20023;-72
2023/01/01 03:08:16;;;;;;;9.45;5.65;;;15.70;99.90;;;;;;2564501;23;20005;-73
2023/01/01 03:09:37;;;;;;;10.05;4.75;;;15.70;99.90;;;;;;2562293;23;20015;-71
2023/01/01 03:11:06;;;;;;;5.28;3.20;;;15.80;99.90;;;;;;2562535;23;20000;-73
2023/01/01 03:12:24;;;;;;;6.05;3.90;;;15.70;99.90;;;;;;2558881;23;20413;-72
2023/01/01 03:13:49;;;;;;;5.13;3.63;;;15.80;99.90;;;;;;2562314;23;20011;-72
2023/01/01 03:15:00;;;;;;;8.95;4.72;;;15.80;99.90;;;;;;2562189;23;20015;-72
2023/01/01 03:16:17;;;;;;;10.32;7.25;;;15.80;99.90;;;;;;2562153;23;20442;-72
2023/01/01 03:17:32;;;;;;;7.47;5.47;;;15.80;99.90;;;;;;2564512;23;20063;-72
2023/01/01 03:18:40;;;;;;;11.00;7.75;;;15.80;99.90;;;;;;2562349;23;20225;-72
2023/01/01 03:19:41;;;;;;;19.10;14.40;;;15.80;99.90;;;;;;2549052;23;20373;-72
2023/01/01 03:20:47;;;;;;;14.27;10.43;;;15.80;99.90;;;;;;2549288;23;20012;-71
2023/01/01 03:22:05;;;;;;;11.57;6.80;;;15.80;99.90;;;;;;2549054;23;20258;-71
2023/01/01 03:23:08;;;;;;;10.88;4.38;;;15.80;99.90;;;;;;2552894;23;20005;-72
2023/01/01 03:24:20;;;;;;;10.90;5.35;;;15.70;99.90;;;;;;2562326;23;20047;-71
2023/01/01 03:25:28;;;;;;;12.30;6.93;;;15.70;99.90;;;;;;2562338;23;20009;-72
2023/01/01 03:26:33;;;;;;;8.52;4.95;;;15.70;99.90;;;;;;2562480;23;20016;-71
2023/01/01 03:27:40;;;;;;;12.32;7.03;;;15.70;99.90;;;;;;2562248;23;20007;-71
2023/01/01 03:28:47;;;;;;;8.07;4.03;;;15.80;99.90;;;;;;2562255;23;20012;-72
2023/01/01 03:29:54;;;;;;;8.40;4.13;;;15.80;99.90;;;;;;2562570;23;20017;-73
2023/01/01 03:30:56;;;;;;;8.13;4.28;;;15.80;99.90;;;;;;2562321;23;20084;-71
2023/01/01 03:31:59;;;;;;;12.60;6.18;;;15.80;99.90;;;;;;2550855;23;20116;-72
2023/01/01 03:33:06;;;;;;;7.50;4.03;;;15.80;99.90;;;;;;2549662;23;20100;-72
2023/01/01 03:34:20;;;;;;;8.88;4.40;;;15.80;99.90;;;;;;2562096;23;20012;-73
2023/01/01 03:35:25;;;;;;;5.38;3.15;;;15.80;99.90;;;;;;2561968;23;20096;-73
2023/01/01 03:36:38;;;;;;;5.97;3.60;;;15.90;99.90;;;;;;2562620;23;20161;-72
2023/01/01 03:37:41;;;;;;;7.05;4.00;;;15.80;99.90;;;;;;2562634;23;20080;-71
2023/01/01 03:38:47;;;;;;;11.90;7.90;;;15.80;99.90;;;;;;2562475;23;20013;-72
2023/01/01 03:39:51;;;;;;;20.90;12.77;;;15.70;99.90;;;;;;2562523;23;20486;-71
2023/01/01 03:41:00;;;;;;;17.13;11.25;;;15.70;99.90;;;;;;2562462;23;20013;-73
2023/01/01 03:42:25;;;;;;;15.80;9.68;;;15.60;99.90;;;;;;2562463;23;20083;-72
2023/01/01 03:43:44;;;;;;;10.18;4.78;;;15.70;99.90;;;;;;2561732;23;20020;-72
2023/01/01 03:44:53;;;;;;;11.88;5.80;;;15.70;99.90;;;;;;2555578;23;20446;-72
2023/01/01 03:45:55;;;;;;;8.88;4.15;;;15.70;99.90;;;;;;2548399;23;20023;-71
2023/01/01 03:46:57;;;;;;;7.75;3.75;;;15.80;99.90;;;;;;2549456;23;19997;-72
2023/01/01 03:47:58;;;;;;;7.93;3.95;;;15.80;99.90;;;;;;2564263;23;20095;-71
2023/01/01 03:49:00;;;;;;;9.77;4.25;;;15.80;99.90;;;;;;2564334;23;20004;-71
2023/01/01 03:50:02;;;;;;;9.30;3.90;;;15.80;99.90;;;;;;2562114;23;20504;-71
2023/01/01 03:51:20;;;;;;;10.27;5.15;;;15.90;99.90;;;;;;2562436;23;20259;-70
2023/01/01 03:52:27;;;;;;;7.93;3.90;;;15.90;99.90;;;;;;2564650;23;20032;-71
2023/01/01 03:53:48;;;;;;;10.75;4.35;;;15.90;99.90;;;;;;2564360;23;20084;-70
2023/01/01 03:55:01;;;;;;;15.45;7.97;;;15.90;99.90;;;;;;2562217;23;20008;-71
2023/01/01 03:56:13;;;;;;;12.95;5.95;;;15.80;99.90;;;;;;2562344;23;20071;-70
2023/01/01 03:57:43;;;;;;;7.63;3.80;;;15.80;99.90;;;;;;2548809;23;20607;-71
2023/01/01 03:58:56;;;;;;;9.30;4.00;;;15.80;99.90;;;;;;2549864;23;20073;-71
2023/01/01 04:00:10;;;;;;;7.50;3.42;;;15.70;99.90;;;;;;2561329;23;20450;-72
2023/01/01 04:01:25;;;;;;;7.78;4.65;;;15.60;99.90;;;;;;2561408;23;20016;-72
2023/01/01 04:02:34;;;;;;;7.97;4.65;;;15.60;99.90;;;;;;2562442;23;20100;-72
2023/01/01 04:03:37;;;;;;;7.93;5.45;;;15.60;99.90;;;;;;2562313;23;20445;-72
2023/01/01 04:04:38;;;;;;;6.72;3.53;;;15.60;99.90;;;;;;2562305;23;20353;-72
2023/01/01 04:05:41;;;;;;;6.95;3.15;;;15.60;99.90;;;;;;2562360;23;20682;-72
2023/01/01 04:06:41;;;;;;;6.80;3.20;;;15.60;99.90;;;;;;2561920;23;20012;-72
2023/01/01 04:07:42;;;;;;;6.63;3.20;;;15.60;99.90;;;;;;2562007;23;20072;-71
2023/01/01 04:08:45;;;;;;;9.20;3.13;;;15.60;99.90;;;;;;2564265;23;20008;-71
2023/01/01 04:09:49;;;;;;;8.25;3.42;;;15.60;99.90;;;;;;2562027;23;20012;-71
2023/01/01 04:10:56;;;;;;;8.45;3.35;;;15.60;99.90;;;;;;2562125;23;20482;-72
2023/01/01 04:12:01;;;;;;;10.82;3.75;;;15.60;99.90;;;;;;2562392;23;20008;-71
2023/01/01 04:13:04;;;;;;;10.05;3.83;;;15.70;99.90;;;;;;2562375;23;20096;-72
2023/01/01 04:14:04;;;;;;;9.02;3.60;;;15.70;99.90;;;;;;2562454;23;20055;-73
2023/01/01 04:15:06;;;;;;;9.52;3.50;;;15.70;99.90;;;;;;2562300;23;20386;-70
2023/01/01 04:16:06;;;;;;;10.85;3.90;;;15.70;99.90;;;;;;2564327;23;20036;-71
2023/01/01 04:17:09;;;;;;;10.05;2.88;;;15.70;99.90;;;;;;2548996;23;20009;-71
2023/01/01 04:18:09;;;;;;;13.00;5.72;;;15.70;99.90;;;;;;2548893;23;20012;-71
2023/01/01 04:19:10;;;;;;;16.00;7.32;;;15.80;99.90;;;;;;2562264;23;20043;-73
2023/01/01 04:20:11;;;;;;;9.27;4.78;;;15.80;99.90;;;;;;2563943;23;20224;-70
2023/01/01 04:21:11;;;;;;;8.45;4.30;;;15.70;99.90;;;;;;2562231;23;20008;-70
2023/01/01 04:22:12;;;;;;;5.55;3.00;;;15.70;99.90;;;;;;2562182;23;20163;-72
2023/01/01 04:23:13;;;;;;;15.50;8.50;;;15.70;99.90;;;;;;2562077;23;20148;-72
2023/01/01 04:24:13;;;;;;;11.75;4.45;;;15.70;99.90;;;;;;2548755;23;20036;-73
2023/01/01 04:25:16;;;;;;;10.43;4.22;;;15.70;99.90;;;;;;2548799;23;20466;-72
2023/01/01 04:26:16;;;;;;;10.38;3.60;;;15.60;99.90;;;;;;2562274;23;20904;-72
2023/01/01 04:27:17;;;;;;;10.05;3.60;;;15.70;99.90;;;;;;2563656;23;20001;-72
2023/01/01 04:28:19;;;;;;;8.82;4.80;;;15.70;99.90;;;;;;2562252;23;20004;-72
2023/01/01 04:29:20;;;;;;;11.68;6.00;;;15.70;99.90;;;;;;2562023;23;20404;-72
2023/01/01 04:30:21;;;;;;;8.25;5.03;;;15.70;99.90;;;;;;2562306;23;20016;-72
2023/01/01 04:31:21;;;;;;;9.43;5.45;;;15.60;99.90;;;;;;2564337;23;20047;-72
2023/01/01 04:32:22;;;;;;;11.43;5.88;;;15.60;99.90;;;;;;2562587;23;20010;-71
2023/01/01 04:33:22;;;;;;;9.55;3.78;;;15.60;99.90;;;;;;2562263;23;20008;-71
2023/01/01 04:34:23;;;;;;;10.90;5.22;;;15.70;99.90;;;;;;2562269;23;20011;-72
2023/01/01 04:35:24;;;;;;;12.15;5.20;;;15.60;99.90;;;;;;2564425;23;20232;-71
2023/01/01 04:36:24;;;;;;;9.70;5.03;;;15.60;99.90;;;;;;2562082;23;20004;-72
2023/01/01 04:37:26;;;;;;;10.25;5.45;;;15.60;99.90;;;;;;2562048;23;20016;-72
2023/01/01 04:38:26;;;;;;;8.20;4.18;;;15.70;99.90;;;;;;2562171;23;20013;-73
2023/01/01 04:39:27;;;;;;;15.05;7.20;;;15.60;99.90;;;;;;2564362;23;20019;-72
2023/01/01 04:40:27;;;;;;;10.50;3.85;;;15.60;99.90;;;;;;2562061;23;20005;-72
2023/01/01 04:41:28;;;;;;;6.93;3.10;;;15.60;99.90;;;;;;2562202;23;20389;-72
2023/01/01 04:42:28;;;;;;;8.18;3.13;;;15.50;99.90;;;;;;2562181;23;20446;-73
2023/01/01 04:43:30;;;;;;;10.82;3.38;;;15.50;99.90;;;;;;2563516;23;20111;-72
2023/01/01 04:44:30;;;;;;;11.05;3.20;;;15.50;99.90;;;;;;2554991;23;20067;-71
2023/01/01 04:45:31;;;;;;;9.07;3.35;;;15.50;99.90;;;;;;2561936;23;20012;-71
2023/01/01 04:46:31;;;;;;;9.63;3.30;;;15.50;99.90;;;;;;2562740;23;20087;-71
2023/01/01 04:47:32;;;;;;;8.27;3.00;;;15.40;99.90;;;;;;2565778;23;19997;-72
2023/01/01 04:48:34;;;;;;;9.77;3.20;;;15.40;99.90;;;;;;2563442;23;20425;-72
2023/01/01 04:49:35;;;;;;;10.98;3.30;;;15.40;99.90;;;;;;2563583;23;20072;-70
2023/01/01 04:50:35;;;;;;;11.43;3.78;;;15.40;99.90;;;;;;2563318;23;20008;-71
2023/01/01 04:51:36;;;;;;;7.57;3.20;;;15.40;99.90;;;;;;2564596;23;20004;-72
2023/01/01 04:52:37;;;;;;;9.23;3.20;;;15.40;99.90;;;;;;2552412;23;20001;-72
2023/01/01 04:53:38;;;;;;;8.18;3.35;;;15.30;99.90;;;;;;2550475;23;20013;-72
2023/01/01 04:54:38;;;;;;;8.45;3.30;;;15.40;99.90;;;;;;2563333;23;20819;-71
2023/01/01 04:55:39;;;;;;;8.43;3.53;;;15.40;99.90;;;;;;2562650;23;20013;-71
2023/01/01 04:56:40;;;;;;;7.68;3.33;;;15.30;99.90;;;;;;2564625;23;20524;-71
2023/01/01 04:57:41;;;;;;;11.32;3.20;;;15.40;99.90;;;;;;2563623;23;20003;-72
2023/01/01 04:58:43;;;;;;;6.45;3.35;;;15.40;99.90;;;;;;2563501;23;20035;-72
2023/01/01 04:59:43;;;;;;;10.23;3.17;;;15.40;99.90;;;;;;2563485;23;20032;-72
2023/01/01 05:00:49;;;;;;;7.18;3.35;;;15.40;99.90;;;;;;2565354;23;20458;-72
2023/01/01 05:01:49;;;;;;;11.77;3.67;;;15.40;99.90;;;;;;2563432;23;20437;-73
2023/01/01 05:02:50;;;;;;;9.27;3.47;;;15.40;99.90;;;;;;2563200;23;20044;-72
2023/01/01 05:03:51;;;;;;;9.40;3.47;;;15.40;99.90;;;;;;2563467;23;20019;-72
2023/01/01 05:04:51;;;;;;;6.70;3.15;;;15.40;99.90;;;;;;2565771;23;20001;-74
2023/01/01 05:06:19;;;;;;;10.10;3.45;;;15.50;99.90;;;;;;2563484;23;20004;-72
2023/01/01 05:07:20;;;;;;;9.93;3.40;;;15.50;99.90;;;;;;2557726;23;19996;-72
2023/01/01 05:08:21;;;;;;;6.90;3.28;;;15.50;99.90;;;;;;2563711;23;20005;-73
2023/01/01 05:09:21;;;;;;;7.60;3.40;;;15.60;99.90;;;;;;2563481;23;20000;-72
2023/01/01 05:10:22;;;;;;;9.07;3.40;;;15.50;99.90;;;;;;2564644;23;20062;-71
2023/01/01 05:11:28;;;;;;;10.48;3.50;;;15.50;99.90;;;;;;2565477;23;19997;-71
2023/01/01 05:12:29;;;;;;;10.75;3.60;;;15.50;99.90;;;;;;2563236;23;20001;-72
2023/01/01 05:13:29;;;;;;;10.40;3.35;;;15.50;99.90;;;;;;2563358;23;20008;-71
2023/01/01 05:14:30;;;;;;;9.43;3.47;;;15.50;99.90;;;;;;2563722;23;20001;-71
2023/01/01 05:15:30;;;;;;;7.93;3.30;;;15.50;99.90;;;;;;2565408;23;19992;-71
2023/01/01 05:16:34;;;;;;;10.23;3.42;;;15.50;99.90;;;;;;2563200;23;20074;-70
2023/01/01 05:17:34;;;;;;;8.65;3.20;;;15.50;99.90;;;;;;2563330;23;20000;-71
2023/01/01 05:18:37;;;;;;;9.50;3.30;;;15.50;99.90;;;;;;2563382;23;20030;-70
2023/01/01 05:19:38;;;;;;;8.18;3.40;;;15.50;99.90;;;;;;2563222;23;20020;-70
2023/01/01 05:20:38;;;;;;;7.90;3.20;;;15.50;99.90;;;;;;2565684;23;20038;-71
2023/01/01 05:21:39;;;;;;;8.77;3.15;;;15.50;99.90;;;;;;2563552;23;20004;-72
2023/01/01 05:22:40;;;;;;;10.23;3.10;;;15.50;99.90;;;;;;2563410;23;20012;-71
2023/01/01 05:23:41;;;;;;;9.60;3.40;;;15.50;99.90;;;;;;2565507;23;20015;-71
2023/01/01 05:24:41;;;;;;;10.10;3.58;;;15.60;99.80;;;;;;2563636;23;20430;-71
2023/01/01 05:25:42;;;;;;;9.30;3.33;;;15.60;99.60;;;;;;2563696;23;20008;-72
2023/01/01 05:26:44;;;;;;;8.82;3.20;;;15.60;99.70;;;;;;2563651;23;20019;-72
2023/01/01 05:27:44;;;;;;;11.18;3.42;;;15.60;99.70;;;;;;2563213;23;20003;-72
2023/01/01 05:28:46;;;;;;;10.23;3.30;;;15.60;99.90;;;;;;2563478;23;20013;-72
2023/01/01 05:29:46;;;;;;;10.93;3.28;;;15.50;99.90;;;;;;2563314;23;20011;-72
2023/01/01 05:30:47;;;;;;;11.07;3.03;;;15.60;99.90;;;;;;2565549;23;20497;-72
2023/01/01 05:31:47;;;;;;;9.05;3.25;;;15.50;99.90;;;;;;2563338;23;20406;-72
2023/01/01 05:32:48;;;;;;;8.43;3.10;;;15.50;99.90;;;;;;2563348;23;20461;-71
2023/01/01 05:33:49;;;;;;;9.13;3.17;;;15.50;99.90;;;;;;2563310;23;20491;-72
2023/01/01 05:34:50;;;;;;;8.90;3.33;;;15.50;99.90;;;;;;2552242;23;20088;-72
2023/01/01 05:35:53;;;;;;;8.30;3.10;;;15.50;99.90;;;;;;2550038;23;20005;-71